Terminal Aerodrome Forecast
Issued by NWS Jackson, MS

Home | Current Version | Previous Version | Text Only | Print | Product List | Glossary On
Versions: 1 2 3 4 5 6 7 8 9 10 11 12 13 14 15 16 17 18 19
000
FTUS44 KJAN 192354 RRA
TAFMEI
TAF
KMEI 192354Z 2000/2024 18006KT 5SM SHRA BR BKN008 OVC025
     FM200400 20006KT 5SM BR BKN008 BKN050
     FM200900 20005KT 1SM BR BKN003 BKN025
     FM201500 21007KT 5SM BR BKN015 BKN250
     FM201800 21009KT P6SM BKN050 BKN250=

USA.gov is the U.S. government's official web portal to all federal, state and local government web resources and services.